57.3°F
Current conditions from King Hill
Updated every 5 minutes
 
  Tuesday July 29, 2014

Station Historical Data
Daily Summary for February 9, 2011 Units:  Metric    English   Both
« Previous Day
Next Day »
Daily Weekly Monthly Yearly Custom
  High: Low: Average:
Temperature: -6.1 °C -16.6 °C -10.2 °C
Dew Point: -10.7 °C -20.5 °C -14.7 °C
Humidity: 83% 58% 70%
Wind Speed: 20.9km/h 1.6km/h 9km/h
Wind Gust: 33.8km/h - -
Wind- - SW
Pressure: 1016.1 hPa 1011.4 hPa -
Precipitation: 0 mm    
Historical Graphs
 
 
Tabular Data for February 9, 2011
Time Temperature Dew Point Pressure Wind Wind Speed Wind Gust Humidity Daily Rainfall
00:00 -16.4 °C -20 °C 1014.8 hPa WSW 6.4 km/h 12.9 km/h 74% 0 mm
00:05 -16.5 °C -20.2 °C 1014.8 hPa WSW 4.8 km/h 12.9 km/h 73% 0 mm
00:10 -16.5 °C -20.1 °C 1014.8 hPa SW 6.4 km/h 11.3 km/h 74% 0 mm
00:15 -16.4 °C -19.9 °C 1015.1 hPa WSW 4.8 km/h 14.5 km/h 74% 0 mm
00:20 -16.3 °C -20.1 °C 1015.1 hPa WSW 6.4 km/h 14.5 km/h 73% 0 mm
00:25 -16.3 °C -20.1 °C 1015.5 hPa WSW 4.8 km/h 12.9 km/h 73% 0 mm
00:30 -16.4 °C -20.2 °C 1015.5 hPa WSW 4.8 km/h 14.5 km/h 73% 0 mm
00:35 -16.3 °C -20.1 °C 1015.5 hPa West 6.4 km/h 14.5 km/h 73% 0 mm
00:40 -16.2 °C -19.9 °C 1015.5 hPa West 8 km/h 17.7 km/h 73% 0 mm
00:45 -16.1 °C -20.1 °C 1015.1 hPa West 8 km/h 17.7 km/h 71% 0 mm
00:50 -16.1 °C -20.2 °C 1015.1 hPa West 6.4 km/h 14.5 km/h 71% 0 mm
00:55 -16 °C -20.1 °C 1015.5 hPa West 6.4 km/h 14.5 km/h 71% 0 mm
01:00 -15.9 °C -20 °C 1015.5 hPa West 6.4 km/h 22.5 km/h 71% 0 mm
01:10 -16.1 °C -20.3 °C 1015.1 hPa West 4.8 km/h 17.7 km/h 70% 0 mm
01:15 -16.2 °C -20.3 °C 1015.5 hPa West 6.4 km/h 14.5 km/h 71% 0 mm
01:20 -16.2 °C -20.3 °C 1015.1 hPa West 3.2 km/h 14.5 km/h 71% 0 mm
01:25 -16.4 °C -20.5 °C 1015.1 hPa West 3.2 km/h 14.5 km/h 71% 0 mm
01:30 -16.6 °C -20.5 °C 1015.5 hPa WSW 8 km/h 16.1 km/h 72% 0 mm
01:35 -16.6 °C -20.3 °C 1015.1 hPa WSW 8 km/h 16.1 km/h 73% 0 mm
01:40 -16.5 °C -20.4 °C 1015.5 hPa WSW 8 km/h 19.3 km/h 72% 0 mm
01:45 -16.3 °C -20.2 °C 1015.5 hPa WSW 8 km/h 19.3 km/h 72% 0 mm
01:50 -16.1 °C -20.1 °C 1015.5 hPa WSW 9.7 km/h 17.7 km/h 71% 0 mm
01:55 -16 °C -20.1 °C 1015.5 hPa WSW 4.8 km/h 16.1 km/h 71% 0 mm
02:05 -15.6 °C -19.7 °C 1015.8 hPa WSW 14.5 km/h 25.7 km/h 71% 0 mm
02:10 -15.3 °C -19.5 °C 1015.8 hPa WSW 11.3 km/h 25.7 km/h 70% 0 mm
02:15 -15.1 °C -19.3 °C 1015.8 hPa West 9.7 km/h 20.9 km/h 70% 0 mm
02:20 -14.8 °C -19.1 °C 1015.8 hPa WSW 12.9 km/h 19.3 km/h 70% 0 mm
02:25 -14.7 °C -19 °C 1015.8 hPa WSW 11.3 km/h 19.3 km/h 70% 0 mm
02:30 -14.7 °C -18.9 °C 1016.1 hPa WSW 11.3 km/h 20.9 km/h 70% 0 mm
02:35 -14.6 °C -18.7 °C 1016.1 hPa WSW 11.3 km/h 20.9 km/h 71% 0 mm
02:40 -14.5 °C -18.6 °C 1016.1 hPa WSW 9.7 km/h 17.7 km/h 71% 0 mm
02:45 -14.4 °C -18.3 °C 1016.1 hPa WSW 9.7 km/h 17.7 km/h 72% 0 mm
02:50 -14.3 °C -18.3 °C 1015.8 hPa WSW 6.4 km/h 17.7 km/h 72% 0 mm
02:55 -14.2 °C -18 °C 1015.8 hPa SW 9.7 km/h 16.1 km/h 73% 0 mm
03:00 -14.1 °C -17.7 °C 1015.8 hPa SW 8 km/h 17.7 km/h 74% 0 mm
03:05 -13.9 °C -17.3 °C 1015.8 hPa WSW 9.7 km/h 20.9 km/h 75% 0 mm
03:10 -13.8 °C -17.4 °C 1015.8 hPa WSW 4.8 km/h 20.9 km/h 74% 0 mm
03:15 -13.7 °C -17.2 °C 1015.5 hPa SW 4.8 km/h 19.3 km/h 75% 0 mm
03:20 -13.6 °C -17.1 °C 1015.5 hPa SW 6.4 km/h 19.3 km/h 75% 0 mm
03:25 -13.5 °C -17 °C 1015.5 hPa WSW 4.8 km/h 12.9 km/h 75% 0 mm
03:30 -13.6 °C -17.1 °C 1015.5 hPa SW 8 km/h 11.3 km/h 75% 0 mm
03:35 -13.8 °C -17.3 °C 1015.5 hPa SW 6.4 km/h 12.9 km/h 75% 0 mm
03:40 -14.1 °C -17.5 °C 1015.5 hPa SSW 9.7 km/h 14.5 km/h 75% 0 mm
03:45 -14.3 °C -17.7 °C 1015.1 hPa SSW 8 km/h 16.1 km/h 75% 0 mm
03:50 -14.4 °C -18.1 °C 1015.1 hPa SSW 9.7 km/h 19.3 km/h 74% 0 mm
03:55 -14.6 °C -18.2 °C 1015.1 hPa SSW 8 km/h 19.3 km/h 74% 0 mm
04:00 -14.7 °C -18.3 °C 1015.1 hPa SSW 8 km/h 14.5 km/h 74% 0 mm
04:05 -14.7 °C -18.3 °C 1015.1 hPa SSW 8 km/h 14.5 km/h 74% 0 mm
04:10 -14.7 °C -18.3 °C 1015.1 hPa SW 8 km/h 14.5 km/h 74% 0 mm
04:15 -14.7 °C -18.3 °C 1015.1 hPa SW 8 km/h 14.5 km/h 74% 0 mm
04:20 -14.7 °C -18.3 °C 1015.1 hPa SSW 6.4 km/h 12.9 km/h 74% 0 mm
04:25 -14.7 °C -18.3 °C 1015.1 hPa SW 8 km/h 12.9 km/h 74% 0 mm
04:30 -14.6 °C -18.2 °C 1014.8 hPa South 6.4 km/h 14.5 km/h 74% 0 mm
04:40 -14.5 °C -17.9 °C 1014.8 hPa SW 6.4 km/h 12.9 km/h 75% 0 mm
04:45 -14.6 °C -18 °C 1014.8 hPa SW 4.8 km/h 11.3 km/h 75% 0 mm
04:50 -14.6 °C -18.1 °C 1014.4 hPa SSW 6.4 km/h 11.3 km/h 75% 0 mm
04:55 -14.6 °C -18 °C 1014.4 hPa SSW 4.8 km/h 11.3 km/h 75% 0 mm
05:05 -14.5 °C -17.9 °C 1014.4 hPa SSW 4.8 km/h 11.3 km/h 75% 0 mm
05:10 -14.4 °C -17.9 °C 1014.4 hPa SSW 4.8 km/h 9.7 km/h 75% 0 mm
05:15 -14.2 °C -17.5 °C 1014.8 hPa SSW 6.4 km/h 14.5 km/h 76% 0 mm
05:20 -13.9 °C -17.4 °C 1014.4 hPa SSW 6.4 km/h 16.1 km/h 75% 0 mm
05:25 -13.7 °C -17 °C 1014.4 hPa SSW 9.7 km/h 16.1 km/h 76% 0 mm
05:30 -13.3 °C -16.8 °C 1014.4 hPa SSW 8 km/h 16.1 km/h 75% 0 mm
05:40 -13.2 °C -16.6 °C 1014.4 hPa SSW 11.3 km/h 19.3 km/h 76% 0 mm
05:45 -13.1 °C -16.4 °C 1014.4 hPa SSW 12.9 km/h 25.7 km/h 76% 0 mm
05:50 -13.1 °C -16.4 °C 1014.8 hPa SSW 8 km/h 25.7 km/h 76% 0 mm
05:55 -13.2 °C -16.3 °C 1014.8 hPa SSW 9.7 km/h 19.3 km/h 77% 0 mm
06:00 -13.3 °C -16.4 °C 1014.4 hPa SW 8 km/h 19.3 km/h 77% 0 mm
06:05 -13.4 °C -16.6 °C 1014.4 hPa SSW 8 km/h 17.7 km/h 77% 0 mm
06:10 -13.4 °C -16.6 °C 1014.1 hPa SSW 9.7 km/h 20.9 km/h 77% 0 mm
06:15 -13.3 °C -16.5 °C 1014.1 hPa SSW 8 km/h 20.9 km/h 77% 0 mm
06:20 -13.3 °C -16.4 °C 1014.1 hPa SSW 4.8 km/h 20.9 km/h 77% 0 mm
06:25 -13.3 °C -16.4 °C 1014.1 hPa SSW 4.8 km/h 17.7 km/h 77% 0 mm
06:30 -13.3 °C -16.3 °C 1014.1 hPa SSW 8 km/h 19.3 km/h 78% 0 mm
06:35 -13.3 °C -16.3 °C 1014.1 hPa SSW 8 km/h 19.3 km/h 78% 0 mm
06:40 -13.4 °C -16.4 °C 1014.1 hPa SSW 4.8 km/h 17.7 km/h 78% 0 mm
06:45 -13.3 °C -16.3 °C 1014.1 hPa SSW 8 km/h 19.3 km/h 78% 0 mm
06:50 -13.3 °C -16.3 °C 1014.4 hPa SSW 11.3 km/h 24.1 km/h 78% 0 mm
06:55 -13.3 °C -16.3 °C 1014.1 hPa SSW 9.7 km/h 24.1 km/h 78% 0 mm
07:00 -13.2 °C -16.2 °C 1014.1 hPa SSW 11.3 km/h 19.3 km/h 78% 0 mm
07:05 -13.2 °C -16.2 °C 1014.4 hPa SSW 8 km/h 19.3 km/h 78% 0 mm
07:10 -13.1 °C -16.1 °C 1014.1 hPa SSW 9.7 km/h 19.3 km/h 78% 0 mm
07:15 -13.1 °C -16.1 °C 1014.1 hPa SSW 8 km/h 17.7 km/h 78% 0 mm
07:20 -13.1 °C -16.1 °C 1014.1 hPa SSW 12.9 km/h 24.1 km/h 78% 0 mm
07:25 -13 °C -16 °C 1014.4 hPa SSW 11.3 km/h 24.1 km/h 78% 0 mm
07:30 -12.9 °C -16.1 °C 1014.4 hPa SSW 12.9 km/h 25.7 km/h 77% 0 mm
07:35 -12.8 °C -16 °C 1014.4 hPa SW 11.3 km/h 27.4 km/h 77% 0 mm
07:40 -12.8 °C -15.9 °C 1014.4 hPa SSW 14.5 km/h 27.4 km/h 77% 0 mm
07:45 -12.7 °C -15.9 °C 1014.8 hPa SSW 8 km/h 22.5 km/h 77% 0 mm
07:50 -12.7 °C -15.8 °C 1014.8 hPa SW 12.9 km/h 22.5 km/h 77% 0 mm
07:55 -12.6 °C -15.8 °C 1014.8 hPa SSW 9.7 km/h 22.5 km/h 77% 0 mm
08:00 -12.5 °C -15.7 °C 1014.8 hPa SSW 11.3 km/h 22.5 km/h 77% 0 mm
08:05 -12.4 °C -15.7 °C 1014.8 hPa SSW 9.7 km/h 22.5 km/h 77% 0 mm
08:10 -12.3 °C -15.6 °C 1014.8 hPa SSW 11.3 km/h 19.3 km/h 77% 0 mm
08:15 -12.3 °C -15.5 °C 1014.4 hPa SSW 8 km/h 22.5 km/h 77% 0 mm
08:20 -12.3 °C -15.5 °C 1014.4 hPa SSW 12.9 km/h 22.5 km/h 77% 0 mm
08:25 -12.2 °C -15.4 °C 1014.4 hPa SSW 12.9 km/h 25.7 km/h 77% 0 mm
08:30 -12.1 °C -15.3 °C 1014.8 hPa SSW 9.7 km/h 25.7 km/h 77% 0 mm
08:35 -12 °C -15.2 °C 1014.4 hPa SSW 9.7 km/h 19.3 km/h 77% 0 mm
08:40 -11.9 °C -15.1 °C 1014.4 hPa SSW 11.3 km/h 27.4 km/h 77% 0 mm
08:45 -11.7 °C -14.9 °C 1014.4 hPa SW 11.3 km/h 27.4 km/h 77% 0 mm
08:50 -11.7 °C -14.9 °C 1014.4 hPa SW 11.3 km/h 20.9 km/h 77% 0 mm
08:55 -11.6 °C -14.8 °C 1014.4 hPa SSW 8 km/h 20.9 km/h 77% 0 mm
09:05 -11.2 °C -14.6 °C 1014.4 hPa SSW 9.7 km/h 24.1 km/h 76% 0 mm
09:10 -11.1 °C -14.4 °C 1014.4 hPa SW 8 km/h 20.9 km/h 76% 0 mm
09:15 -10.9 °C -14.3 °C 1014.4 hPa SSW 9.7 km/h 22.5 km/h 76% 0 mm
09:20 -10.8 °C -14.4 °C 1014.4 hPa SW 14.5 km/h 24.1 km/h 75% 0 mm
09:25 -10.7 °C -14.3 °C 1014.4 hPa SW 9.7 km/h 24.1 km/h 75% 0 mm
09:30 -10.6 °C -14.2 °C 1014.4 hPa SW 9.7 km/h 22.5 km/h 75% 0 mm
09:35 -10.6 °C -14.1 °C 1014.4 hPa SSW 11.3 km/h 25.7 km/h 75% 0 mm
09:40 -10.4 °C -14 °C 1014.4 hPa SW 6.4 km/h 25.7 km/h 75% 0 mm
09:45 -10.3 °C -13.9 °C 1014.4 hPa SW 12.9 km/h 19.3 km/h 75% 0 mm
09:50 -10.3 °C -13.8 °C 1014.4 hPa SSW 12.9 km/h 19.3 km/h 75% 0 mm
09:55 -10.2 °C -13.8 °C 1014.4 hPa SW 9.7 km/h 20.9 km/h 75% 0 mm
10:05 -10 °C -13.8 °C 1014.4 hPa SW 9.7 km/h 22.5 km/h 74% 0 mm
10:10 -9.9 °C -13.7 °C 1014.1 hPa SSW 11.3 km/h 24.1 km/h 74% 0 mm
10:15 -9.8 °C -13.6 °C 1014.1 hPa SSW 9.7 km/h 24.1 km/h 74% 0 mm
10:20 -9.7 °C -13.7 °C 1014.1 hPa SW 12.9 km/h 29 km/h 73% 0 mm
10:25 -9.6 °C -13.5 °C 1014.1 hPa SW 12.9 km/h 29 km/h 73% 0 mm
10:30 -9.4 °C -13.6 °C 1014.1 hPa SW 12.9 km/h 30.6 km/h 72% 0 mm
10:35 -9.4 °C -13.5 °C 1014.1 hPa SSW 11.3 km/h 30.6 km/h 72% 0 mm
10:45 -9.2 °C -13.3 °C 1014.1 hPa SW 14.5 km/h 25.7 km/h 72% 0 mm
10:50 -9.2 °C -13.4 °C 1013.8 hPa SW 16.1 km/h 27.4 km/h 71% 0 mm
10:55 -9.2 °C -13.3 °C 1013.8 hPa SSW 8 km/h 27.4 km/h 72% 0 mm
11:00 -9.1 °C -13.4 °C 1013.8 hPa SW 17.7 km/h 24.1 km/h 71% 0 mm
11:05 -9.1 °C -13.2 °C 1013.8 hPa SSW 9.7 km/h 24.1 km/h 72% 0 mm
11:10 -9.2 °C -13.3 °C 1013.8 hPa SSW 9.7 km/h 20.9 km/h 72% 0 mm
11:15 -9.1 °C -13.3 °C 1013.8 hPa SSW 17.7 km/h 30.6 km/h 71% 0 mm
11:20 -8.9 °C -13.2 °C 1013.8 hPa SW 14.5 km/h 30.6 km/h 71% 0 mm
11:25 -8.8 °C -13.1 °C 1013.8 hPa SW 14.5 km/h 32.2 km/h 71% 0 mm
11:30 -8.6 °C -12.9 °C 1013.8 hPa SSW 11.3 km/h 32.2 km/h 71% 0 mm
11:35 -8.5 °C -13 °C 1013.4 hPa SW 14.5 km/h 27.4 km/h 70% 0 mm
11:40 -8.5 °C -13 °C 1013.4 hPa SSW 11.3 km/h 24.1 km/h 70% 0 mm
11:45 -8.4 °C -12.9 °C 1013.4 hPa SSW 8 km/h 24.1 km/h 70% 0 mm
11:50 -8.3 °C -13 °C 1013.1 hPa SSW 14.5 km/h 27.4 km/h 69% 0 mm
11:55 -8.4 °C -12.9 °C 1013.1 hPa SSW 12.9 km/h 30.6 km/h 70% 0 mm
12:00 -8.4 °C -13.1 °C 1013.1 hPa SSW 14.5 km/h 33.8 km/h 69% 0 mm
12:05 -8.3 °C -13 °C 1012.8 hPa SSW 8 km/h 33.8 km/h 69% 0 mm
12:10 -8.2 °C -12.7 °C 1012.8 hPa SSW 11.3 km/h 29 km/h 70% 0 mm
12:15 -8.1 °C -12.7 °C 1012.8 hPa SSW 12.9 km/h 22.5 km/h 69% 0 mm
12:20 -8.1 °C -12.7 °C 1012.4 hPa SSW 11.3 km/h 22.5 km/h 69% 0 mm
12:25 -7.8 °C -12.7 °C 1012.4 hPa SSW 12.9 km/h 24.1 km/h 68% 0 mm
12:30 -7.8 °C -12.7 °C 1012.4 hPa SSW 12.9 km/h 25.7 km/h 68% 0 mm
12:40 -7.7 °C -12.6 °C 1012.4 hPa SSW 9.7 km/h 22.5 km/h 68% 0 mm
12:45 -7.7 °C -12.7 °C 1012.1 hPa SSW 11.3 km/h 22.5 km/h 67% 0 mm
12:50 -7.8 °C -12.7 °C 1012.1 hPa SSW 12.9 km/h 22.5 km/h 68% 0 mm
12:55 -7.8 °C -12.7 °C 1012.1 hPa SSW 11.3 km/h 22.5 km/h 68% 0 mm
13:00 -7.6 °C -12.4 °C 1012.1 hPa SSW 9.7 km/h 24.1 km/h 68% 0 mm
13:05 -7.4 °C -12.3 °C 1012.1 hPa SW 8 km/h 24.1 km/h 68% 0 mm
13:10 -7.3 °C -12.3 °C 1012.1 hPa SW 12.9 km/h 22.5 km/h 67% 0 mm
13:15 -7.4 °C -12.7 °C 1012.1 hPa SSW 11.3 km/h 24.1 km/h 66% 0 mm
13:20 -7.4 °C -12.7 °C 1012.1 hPa SSW 12.9 km/h 24.1 km/h 66% 0 mm
13:25 -7.3 °C -12.3 °C 1012.1 hPa SSW 11.3 km/h 24.1 km/h 67% 0 mm
13:30 -7 °C -12.3 °C 1012.1 hPa SSW 11.3 km/h 19.3 km/h 66% 0 mm
13:35 -7.1 °C -12.4 °C 1012.1 hPa SW 9.7 km/h 29 km/h 66% 0 mm
13:40 -7.1 °C -12.3 °C 1012.1 hPa SW 12.9 km/h 29 km/h 66% 0 mm
13:45 -7.2 °C -12.7 °C 1012.1 hPa SW 14.5 km/h 29 km/h 65% 0 mm
13:50 -7.1 °C -12.2 °C 1012.1 hPa SSW 6.4 km/h 29 km/h 67% 0 mm
13:55 -7.2 °C -12.7 °C 1012.1 hPa SSW 14.5 km/h 29 km/h 65% 0 mm
14:00 -7.3 °C -12.6 °C 1012.1 hPa SSW 9.7 km/h 30.6 km/h 66% 0 mm
14:05 -7.2 °C -12.5 °C 1012.1 hPa SW 12.9 km/h 30.6 km/h 66% 0 mm
14:10 -7.2 °C -12.4 °C 1011.7 hPa SSW 11.3 km/h 24.1 km/h 66% 0 mm
14:15 -7.2 °C -12.6 °C 1011.7 hPa SSW 14.5 km/h 27.4 km/h 65% 0 mm
14:20 -6.9 °C -12.6 °C 1011.7 hPa SSW 16.1 km/h 30.6 km/h 64% 0 mm
14:25 -7.1 °C -12.7 °C 1011.7 hPa SW 20.9 km/h 32.2 km/h 64% 0 mm
14:30 -6.9 °C -12.6 °C 1011.7 hPa SSW 14.5 km/h 33.8 km/h 64% 0 mm
14:35 -6.8 °C -12.7 °C 1011.7 hPa SW 12.9 km/h 33.8 km/h 63% 0 mm
14:40 -6.8 °C -12.5 °C 1011.7 hPa SSW 14.5 km/h 30.6 km/h 64% 0 mm
14:45 -6.8 °C -12.5 °C 1011.7 hPa SSW 11.3 km/h 30.6 km/h 64% 0 mm
14:50 -6.9 °C -12.6 °C 1011.7 hPa SSW 8 km/h 24.1 km/h 64% 0 mm
14:55 -6.9 °C -12.6 °C 1011.7 hPa SW 12.9 km/h 24.1 km/h 64% 0 mm
15:00 -6.9 °C -12.6 °C 1011.7 hPa SSW 8 km/h 24.1 km/h 64% 0 mm
15:05 -6.8 °C -12.5 °C 1011.7 hPa SW 9.7 km/h 20.9 km/h 64% 0 mm
15:10 -6.7 °C -12.3 °C 1011.7 hPa SW 4.8 km/h 14.5 km/h 64% 0 mm
15:15 -6.5 °C -12.4 °C 1011.7 hPa SW 12.9 km/h 20.9 km/h 63% 0 mm
15:20 -6.6 °C -12.6 °C 1011.7 hPa SW 14.5 km/h 20.9 km/h 62% 0 mm
15:25 -6.3 °C -12.4 °C 1011.7 hPa SSW 9.7 km/h 20.9 km/h 62% 0 mm
15:30 -6.1 °C -12.3 °C 1011.7 hPa SW 16.1 km/h 24.1 km/h 61% 0 mm
15:35 -6.3 °C -12.6 °C 1011.7 hPa SSW 14.5 km/h 24.1 km/h 61% 0 mm
15:40 -6.4 °C -12.5 °C 1011.7 hPa SW 9.7 km/h 24.1 km/h 62% 0 mm
15:45 -6.4 °C -12.5 °C 1011.4 hPa SW 9.7 km/h 24.1 km/h 62% 0 mm
15:50 -6.6 °C -12.6 °C 1011.4 hPa SW 9.7 km/h 24.1 km/h 62% 0 mm
15:55 -6.6 °C -12.6 °C 1011.4 hPa SW 8 km/h 22.5 km/h 62% 0 mm
16:05 -6.7 °C -12.7 °C 1011.4 hPa SW 9.7 km/h 24.1 km/h 62% 0 mm
16:10 -6.7 °C -12.7 °C 1011.4 hPa SW 8 km/h 24.1 km/h 62% 0 mm
16:15 -6.8 °C -12.8 °C 1011.4 hPa SW 9.7 km/h 22.5 km/h 62% 0 mm
16:20 -6.8 °C -12.9 °C 1011.4 hPa SW 8 km/h 20.9 km/h 62% 0 mm
16:25 -6.8 °C -12.7 °C 1011.4 hPa SW 4.8 km/h 20.9 km/h 63% 0 mm
16:30 -6.8 °C -12.7 °C 1011.4 hPa SW 6.4 km/h 14.5 km/h 63% 0 mm
16:35 -6.8 °C -12.5 °C 1011.4 hPa SSW 3.2 km/h 16.1 km/h 64% 0 mm
16:40 -6.8 °C -12.7 °C 1011.4 hPa SW 8 km/h 16.1 km/h 63% 0 mm
16:45 -6.8 °C -12.7 °C 1011.4 hPa SSW 9.7 km/h 22.5 km/h 63% 0 mm
16:50 -6.8 °C -12.7 °C 1011.4 hPa SW 6.4 km/h 22.5 km/h 63% 0 mm
16:55 -6.8 °C -12.7 °C 1011.4 hPa SW 9.7 km/h 20.9 km/h 63% 0 mm
17:05 -7 °C -12.7 °C 1011.4 hPa SW 8 km/h 16.1 km/h 64% 0 mm
17:10 -7 °C -12.8 °C 1011.4 hPa SW 9.7 km/h 17.7 km/h 63% 0 mm
17:15 -7 °C -12.8 °C 1011.4 hPa SW 12.9 km/h 20.9 km/h 63% 0 mm
17:20 -7.1 °C -12.9 °C 1011.4 hPa SW 9.7 km/h 22.5 km/h 63% 0 mm
17:25 -7.2 °C -12.8 °C 1011.4 hPa SW 11.3 km/h 22.5 km/h 64% 0 mm
17:30 -7.2 °C -12.8 °C 1011.4 hPa SW 8 km/h 14.5 km/h 64% 0 mm
17:35 -7.2 °C -12.6 °C 1011.4 hPa SW 6.4 km/h 14.5 km/h 65% 0 mm
17:40 -7.1 °C -12.7 °C 1011.7 hPa SW 6.4 km/h 16.1 km/h 64% 0 mm
17:45 -7.1 °C -12.5 °C 1011.7 hPa SW 6.4 km/h 16.1 km/h 65% 0 mm
17:50 -6.9 °C -12.6 °C 1011.7 hPa SW 9.7 km/h 22.5 km/h 64% 0 mm
17:55 -6.8 °C -12.7 °C 1011.7 hPa SW 8 km/h 22.5 km/h 63% 0 mm
18:00 -6.6 °C -12.7 °C 1012.1 hPa WSW 11.3 km/h 20.9 km/h 62% 0 mm
18:05 -6.4 °C -12.5 °C 1012.1 hPa WSW 8 km/h 20.9 km/h 62% 0 mm
18:10 -6.4 °C -12.5 °C 1011.7 hPa SW 3.2 km/h 16.1 km/h 62% 0 mm
18:15 -6.5 °C -12.6 °C 1012.1 hPa SW 4.8 km/h 14.5 km/h 62% 0 mm
18:20 -6.4 °C -12.5 °C 1011.7 hPa SW 6.4 km/h 16.1 km/h 62% 0 mm
18:25 -6.7 °C -12.7 °C 1012.1 hPa SW 6.4 km/h 16.1 km/h 62% 0 mm
18:30 -6.8 °C -12.7 °C 1012.1 hPa SW 9.7 km/h 16.1 km/h 63% 0 mm
18:35 -7.1 °C -12.9 °C 1012.1 hPa SW 8 km/h 17.7 km/h 63% 0 mm
18:40 -7.1 °C -12.9 °C 1012.1 hPa SW 8 km/h 17.7 km/h 63% 0 mm
18:45 -7.1 °C -13.1 °C 1012.1 hPa SW 9.7 km/h 16.1 km/h 62% 0 mm
18:50 -7.1 °C -12.9 °C 1012.1 hPa SW 6.4 km/h 16.1 km/h 63% 0 mm
18:55 -7.1 °C -12.9 °C 1012.1 hPa SW 6.4 km/h 16.1 km/h 63% 0 mm
19:00 -7.1 °C -13.2 °C 1012.1 hPa SSW 8 km/h 12.9 km/h 62% 0 mm
19:05 -7.1 °C -13.1 °C 1012.1 hPa SW 6.4 km/h 14.5 km/h 62% 0 mm
19:10 -7.2 °C -13.2 °C 1012.1 hPa SSW 8 km/h 16.1 km/h 62% 0 mm
19:15 -7.2 °C -13.4 °C 1012.1 hPa SSW 8 km/h 16.1 km/h 61% 0 mm
19:20 -7.3 °C -13.5 °C 1012.1 hPa SW 11.3 km/h 17.7 km/h 61% 0 mm
19:25 -7.3 °C -13.6 °C 1012.1 hPa SSW 11.3 km/h 19.3 km/h 61% 0 mm
19:30 -7.4 °C -13.7 °C 1012.1 hPa SSW 9.7 km/h 20.9 km/h 61% 0 mm
19:35 -7.4 °C -13.7 °C 1012.1 hPa SSW 11.3 km/h 20.9 km/h 61% 0 mm
19:40 -7.6 °C -13.8 °C 1011.7 hPa SSW 9.7 km/h 20.9 km/h 61% 0 mm
19:45 -7.6 °C -13.8 °C 1011.7 hPa SSW 9.7 km/h 17.7 km/h 61% 0 mm
19:50 -7.7 °C -13.9 °C 1011.7 hPa SSW 9.7 km/h 17.7 km/h 61% 0 mm
19:55 -7.7 °C -13.7 °C 1011.7 hPa SSW 6.4 km/h 16.1 km/h 62% 0 mm
20:00 -7.7 °C -13.7 °C 1011.7 hPa SSW 6.4 km/h 16.1 km/h 62% 0 mm
20:05 -7.7 °C -13.7 °C 1011.7 hPa SSW 8 km/h 12.9 km/h 62% 0 mm
20:10 -7.7 °C -13.7 °C 1011.7 hPa SSW 8 km/h 16.1 km/h 62% 0 mm
20:15 -7.6 °C -13.8 °C 1011.7 hPa SSW 9.7 km/h 16.1 km/h 61% 0 mm
20:20 -7.6 °C -13.8 °C 1011.7 hPa SSW 6.4 km/h 17.7 km/h 61% 0 mm
20:25 -7.6 °C -13.8 °C 1011.7 hPa SW 8 km/h 17.7 km/h 61% 0 mm
20:30 -7.6 °C -13.8 °C 1012.1 hPa SSW 8 km/h 14.5 km/h 61% 0 mm
20:35 -7.5 °C -13.7 °C 1012.1 hPa SSW 4.8 km/h 14.5 km/h 61% 0 mm
20:40 -7.4 °C -14.1 °C 1012.1 hPa SW 8 km/h 14.5 km/h 59% 0 mm
20:45 -7.4 °C -14.1 °C 1012.1 hPa SW 8 km/h 14.5 km/h 59% 0 mm
20:50 -7.3 °C -14 °C 1012.1 hPa SW 8 km/h 19.3 km/h 59% 0 mm
20:55 -7.3 °C -14.1 °C 1012.1 hPa SW 11.3 km/h 19.3 km/h 58% 0 mm
21:00 -7.2 °C -14.1 °C 1012.1 hPa SW 9.7 km/h 19.3 km/h 58% 0 mm
21:05 -7.2 °C -14.1 °C 1012.1 hPa SW 6.4 km/h 17.7 km/h 58% 0 mm
21:10 -7.2 °C -14.1 °C 1012.1 hPa SW 12.9 km/h 24.1 km/h 58% 0 mm
21:15 -7.2 °C -14.1 °C 1012.1 hPa SW 9.7 km/h 24.1 km/h 58% 0 mm
21:20 -7.2 °C -13.9 °C 1012.1 hPa WSW 8 km/h 20.9 km/h 59% 0 mm
21:25 -7.3 °C -13.7 °C 1012.1 hPa WSW 4.8 km/h 17.7 km/h 60% 0 mm
21:30 -7.3 °C -13.8 °C 1012.1 hPa WSW 4.8 km/h 12.9 km/h 60% 0 mm
21:35 -7.4 °C -13.7 °C 1012.1 hPa West 1.6 km/h 9.7 km/h 61% 0 mm
21:45 -7.6 °C -13.6 °C 1012.1 hPa WSW 4.8 km/h 9.7 km/h 62% 0 mm
21:50 -7.6 °C -13.6 °C 1012.1 hPa WSW 6.4 km/h 9.7 km/h 62% 0 mm
21:55 -7.6 °C -13.4 °C 1012.1 hPa WSW 4.8 km/h 9.7 km/h 63% 0 mm
22:00 -7.7 °C -13.1 °C 1012.1 hPa WSW 3.2 km/h 8 km/h 65% 0 mm
22:05 -7.8 °C -12.5 °C 1012.1 hPa SW 8 km/h 14.5 km/h 69% 0 mm
22:10 -8 °C -12 °C 1012.1 hPa WSW 4.8 km/h 14.5 km/h 73% 0 mm
22:15 -8.1 °C -11.8 °C 1012.1 hPa WSW 8 km/h 12.9 km/h 75% 0 mm
22:20 -8.2 °C -11.6 °C 1012.4 hPa WSW 3.2 km/h 12.9 km/h 77% 0 mm
22:25 -8.3 °C -11.4 °C 1012.1 hPa WSW 3.2 km/h 8 km/h 78% 0 mm
22:30 -8.3 °C -11.3 °C 1012.1 hPa WSW 4.8 km/h 9.7 km/h 79% 0 mm
22:35 -8.4 °C -11.2 °C 1012.4 hPa WSW 4.8 km/h 9.7 km/h 80% 0 mm
22:40 -8.4 °C -11.1 °C 1012.4 hPa WSW 3.2 km/h 9.7 km/h 81% 0 mm
22:45 -8.5 °C -11 °C 1012.4 hPa WSW 4.8 km/h 9.7 km/h 82% 0 mm
22:50 -8.5 °C -11 °C 1012.4 hPa WSW 3.2 km/h 9.7 km/h 82% 0 mm
22:55 -8.6 °C -10.9 °C 1012.4 hPa West 6.4 km/h 9.7 km/h 83% 0 mm
23:00 -8.6 °C -10.9 °C 1012.4 hPa WSW 3.2 km/h 9.7 km/h 83% 0 mm
23:05 -8.6 °C -11 °C 1012.4 hPa WSW 3.2 km/h 8 km/h 83% 0 mm
23:10 -8.6 °C -10.9 °C 1012.4 hPa WSW 1.6 km/h 8 km/h 83% 0 mm
23:15 -8.4 °C -10.8 °C 1012.4 hPa WSW 8 km/h 14.5 km/h 83% 0 mm
23:20 -8.3 °C -10.7 °C 1012.4 hPa West 4.8 km/h 19.3 km/h 83% 0 mm
23:25 -8.3 °C -10.7 °C 1012.4 hPa West 4.8 km/h 19.3 km/h 83% 0 mm
23:30 -8.3 °C -10.7 °C 1012.4 hPa WSW 6.4 km/h 14.5 km/h 83% 0 mm
23:40 -8.3 °C -10.7 °C 1012.4 hPa WSW 8 km/h 12.9 km/h 83% 0 mm
23:45 -8.3 °C -10.8 °C 1012.1 hPa WSW 6.4 km/h 12.9 km/h 82% 0 mm
23:50 -8.3 °C -10.8 °C 1012.1 hPa WSW 6.4 km/h 12.9 km/h 82% 0 mm
23:55 -8.3 °C -10.9 °C 1012.4 hPa West 3.2 km/h 14.5 km/h 81% 0 mm
Westford Weather
Compliments of Weather Underground

 
 
Current Radar Loop:

Copyright © WestfordWeather.net 2007-2014. All rights reserved.